Time;durP1;ratioP1;P1;durP2;ratioP2;P2;SDS_P1;SDS_P2;PMS_P1;PMS_P2;Temp;Humidity;BMP_temperature;BMP_pressure;BME280_temperature;BME280_humidity;BME280_pressure;Samples;Min_cycle;Max_cycle;Signal;HPM_P1;HPM_P2
2022/10/13 00:01:28;;;;;;;8.95;7.03;;;12.60;66.00;;;;;;4804638;29;20094;-44
2022/10/13 00:03:55;;;;;;;8.25;7.20;;;12.60;66.20;;;;;;4817462;29;20046;-44
2022/10/13 00:06:24;;;;;;;8.13;6.43;;;12.60;66.30;;;;;;4812341;29;20043;-48
2022/10/13 00:08:54;;;;;;;9.27;7.18;;;12.60;66.40;;;;;;4802941;29;20428;-45
2022/10/13 00:11:26;;;;;;;9.57;7.30;;;12.70;66.40;;;;;;4804175;29;20149;-44
2022/10/13 00:13:54;;;;;;;;;;;12.70;66.80;;;;;;4804171;29;20051;-45
2022/10/13 00:16:21;;;;;;;10.55;6.45;;;12.80;67.00;;;;;;4802042;29;20290;-49
2022/10/13 00:18:49;;;;;;;9.35;6.82;;;12.80;66.00;;;;;;4804057;29;20047;-46
2022/10/13 00:21:19;;;;;;;8.68;6.45;;;12.80;66.50;;;;;;4804204;29;20051;-44
2022/10/13 00:23:50;;;;;;;12.40;7.32;;;12.80;66.70;;;;;;4799815;29;20142;-45
2022/10/13 00:26:22;;;;;;;13.18;7.20;;;12.90;67.10;;;;;;4798705;29;20592;-44
2022/10/13 00:28:49;;;;;;;10.48;7.00;;;12.90;67.90;;;;;;4803431;29;20061;-46
2022/10/13 00:31:21;;;;;;;10.20;7.05;;;13.00;67.80;;;;;;4804303;29;20070;-47
2022/10/13 00:33:48;;;;;;;11.32;7.63;;;13.00;68.00;;;;;;4800442;29;20042;-45
2022/10/13 00:36:17;;;;;;;11.95;7.57;;;13.00;68.20;;;;;;4803546;29;20038;-44
2022/10/13 00:38:47;;;;;;;11.57;6.55;;;13.10;69.00;;;;;;4803395;29;20062;-43
2022/10/13 00:41:17;;;;;;;9.82;6.93;;;13.10;68.40;;;;;;4798711;29;20054;-43
2022/10/13 00:43:56;;;;;;;11.52;7.05;;;13.20;69.30;;;;;;4796451;29;20067;-44
2022/10/13 00:46:28;;;;;;;10.75;7.30;;;13.30;69.20;;;;;;4797478;29;20051;-45
2022/10/13 00:49:13;;;;;;;8.05;6.25;;;13.30;68.50;;;;;;4803930;29;20075;-44
2022/10/13 00:51:47;;;;;;;11.15;6.50;;;13.40;68.80;;;;;;4810689;29;20507;-45
2022/10/13 00:54:20;;;;;;;9.98;6.00;;;13.40;68.30;;;;;;4806614;29;20042;-48
2022/10/13 00:56:51;;;;;;;10.18;6.13;;;13.50;68.40;;;;;;4803231;29;20717;-45
2022/10/13 00:59:28;;;;;;;10.13;6.43;;;13.50;68.30;;;;;;4803929;29;20051;-44
2022/10/13 01:01:58;;;;;;;8.95;6.32;;;13.50;68.30;;;;;;4800691;29;20049;-46
2022/10/13 01:04:36;;;;;;;11.00;7.38;;;13.50;68.40;;;;;;4799724;29;20051;-45
2022/10/13 01:07:07;;;;;;;11.80;6.97;;;13.60;68.90;;;;;;4803330;29;20675;-43
2022/10/13 01:09:37;;;;;;;8.93;6.93;;;13.60;68.50;;;;;;4803448;29;20065;-47
2022/10/13 01:12:19;;;;;;;7.50;5.72;;;13.60;68.80;;;;;;4800884;29;20050;-49
2022/10/13 01:15:16;;;;;;;;;;;13.70;68.90;;;;;;4800515;29;20131;-45
2022/10/13 01:18:13;;;;;;;8.68;5.60;;;13.70;69.20;;;;;;4792852;29;20314;-45
2022/10/13 01:21:12;;;;;;;9.07;6.15;;;13.80;69.10;;;;;;4800444;29;20479;-43
2022/10/13 01:24:19;;;;;;;10.00;7.25;;;13.90;69.00;;;;;;4800272;29;20508;-44
2022/10/13 01:27:09;;;;;;;9.60;6.60;;;13.90;69.10;;;;;;4800359;29;20070;-43
2022/10/13 01:29:59;;;;;;;7.65;5.90;;;13.90;69.00;;;;;;4800998;29;20059;-47
2022/10/13 01:32:41;;;;;;;10.18;6.03;;;13.90;68.40;;;;;;4804436;29;20081;-45
2022/10/13 01:35:43;;;;;;;9.00;6.70;;;14.00;68.40;;;;;;4803738;29;20047;-45
2022/10/13 01:38:29;;;;;;;10.55;6.53;;;14.00;69.20;;;;;;4792304;29;20086;-46
2022/10/13 01:41:10;;;;;;;7.68;6.40;;;14.00;69.00;;;;;;4801653;29;20129;-43
2022/10/13 01:43:46;;;;;;;8.10;6.32;;;14.00;68.60;;;;;;4802449;29;20458;-46
2022/10/13 01:46:24;;;;;;;12.77;6.82;;;14.00;68.40;;;;;;4806111;29;20087;-48
2022/10/13 01:49:00;;;;;;;8.57;6.15;;;14.10;68.80;;;;;;4807131;29;20073;-45
2022/10/13 01:51:28;;;;;;;9.25;6.13;;;14.10;68.60;;;;;;4803659;29;20053;-48
2022/10/13 01:53:58;;;;;;;7.23;5.37;;;14.10;68.40;;;;;;4806391;29;20134;-48
2022/10/13 01:56:25;;;;;;;7.35;5.97;;;14.10;68.30;;;;;;4806292;29;20047;-44
2022/10/13 01:59:00;;;;;;;10.70;5.97;;;14.10;68.40;;;;;;4799287;29;20100;-44
2022/10/13 02:01:46;;;;;;;8.52;6.18;;;14.20;68.80;;;;;;4805157;29;20062;-48
2022/10/13 02:04:55;;;;;;;9.88;7.15;;;14.20;69.10;;;;;;4806335;29;20042;-44
2022/10/13 02:07:28;;;;;;;8.38;5.72;;;14.20;69.20;;;;;;4806586;29;20065;-47
2022/10/13 02:10:09;;;;;;;9.90;6.63;;;14.30;68.50;;;;;;4802212;29;20059;-46
2022/10/13 02:12:46;;;;;;;9.65;5.78;;;14.30;69.00;;;;;;4801873;29;20058;-48
2022/10/13 02:15:21;;;;;;;8.75;5.78;;;14.30;68.60;;;;;;4805779;29;20054;-45
2022/10/13 02:17:50;;;;;;;6.63;5.22;;;14.30;68.60;;;;;;4808374;29;20047;-44
2022/10/13 02:20:22;;;;;;;8.05;5.90;;;14.30;68.30;;;;;;4799473;29;20130;-48
2022/10/13 02:22:55;;;;;;;7.53;5.07;;;14.30;68.20;;;;;;4806287;29;20050;-45
2022/10/13 02:25:23;;;;;;;11.00;6.68;;;14.30;68.60;;;;;;4806184;29;20371;-47
2022/10/13 02:27:54;;;;;;;10.43;6.47;;;14.30;68.40;;;;;;4802285;29;20397;-46
2022/10/13 02:30:29;;;;;;;5.85;4.80;;;14.30;68.40;;;;;;4806293;29;20055;-45
2022/10/13 02:33:01;;;;;;;7.30;5.85;;;14.30;68.40;;;;;;4810880;29;20038;-45
2022/10/13 02:35:29;;;;;;;7.40;5.82;;;14.30;68.30;;;;;;4802228;29;20050;-48
2022/10/13 02:38:00;;;;;;;11.23;5.28;;;14.30;68.30;;;;;;4800424;29;20047;-44
2022/10/13 02:40:32;;;;;;;8.15;5.50;;;14.30;68.20;;;;;;4805814;29;20103;-45
2022/10/13 02:43:01;;;;;;;8.40;6.07;;;14.30;68.20;;;;;;4801652;29;20449;-46
2022/10/13 02:45:30;;;;;;;7.88;5.78;;;14.40;68.20;;;;;;4805617;29;20050;-44
2022/10/13 02:47:57;;;;;;;10.13;5.65;;;14.30;68.30;;;;;;4805894;29;20082;-44
2022/10/13 02:50:26;;;;;;;8.48;5.40;;;14.30;68.20;;;;;;4804963;29;20123;-45
2022/10/13 02:52:55;;;;;;;11.85;5.80;;;14.30;68.30;;;;;;4800748;29;20050;-44
2022/10/13 02:55:22;;;;;;;6.75;5.03;;;14.30;68.50;;;;;;4803277;29;20047;-47
2022/10/13 02:57:54;;;;;;;9.70;6.40;;;14.30;68.50;;;;;;4803851;29;20055;-43
2022/10/13 03:00:25;;;;;;;9.15;5.90;;;14.30;68.50;;;;;;4805573;29;20576;-45
2022/10/13 03:02:59;;;;;;;9.35;6.15;;;14.30;68.60;;;;;;4805021;29;20058;-45
2022/10/13 03:05:26;;;;;;;12.23;6.25;;;14.30;68.60;;;;;;4802891;29;20121;-45
2022/10/13 03:07:53;;;;;;;9.30;5.88;;;14.30;68.50;;;;;;4805072;29;20051;-44
2022/10/13 03:10:19;;;;;;;8.85;5.50;;;14.30;68.50;;;;;;4805432;29;20071;-49
2022/10/13 03:12:51;;;;;;;9.18;5.07;;;14.30;68.50;;;;;;4803224;29;20031;-43
2022/10/13 03:15:17;;;;;;;8.27;6.22;;;14.30;68.60;;;;;;4801018;29;20039;-49
2022/10/13 03:17:45;;;;;;;7.38;5.43;;;14.30;68.60;;;;;;4805322;29;20504;-45
2022/10/13 03:20:12;;;;;;;7.43;4.82;;;14.20;68.60;;;;;;4805335;29;20058;-46
2022/10/13 03:22:41;;;;;;;7.43;4.88;;;14.30;68.60;;;;;;4803322;29;20043;-48
2022/10/13 03:25:14;;;;;;;9.35;5.70;;;14.20;68.60;;;;;;4801352;29;20529;-48
2022/10/13 03:27:42;;;;;;;9.07;6.43;;;14.20;68.50;;;;;;4803702;29;20080;-46
2022/10/13 03:30:10;;;;;;;7.45;5.68;;;14.20;68.60;;;;;;4804971;29;20062;-43
2022/10/13 03:32:39;;;;;;;8.13;5.88;;;14.20;68.60;;;;;;4801274;29;20134;-47
2022/10/13 03:35:06;;;;;;;8.25;6.10;;;14.20;68.60;;;;;;4804906;29;20603;-44
2022/10/13 03:37:36;;;;;;;7.13;6.40;;;14.20;68.70;;;;;;4803929;29;20051;-48
2022/10/13 03:40:05;;;;;;;8.30;5.68;;;14.20;68.70;;;;;;4804608;29;20096;-46
2022/10/13 03:42:34;;;;;;;9.07;6.60;;;14.20;68.80;;;;;;4799507;29;20043;-45
2022/10/13 03:45:02;;;;;;;6.43;5.28;;;14.10;68.90;;;;;;4804246;29;20050;-44
2022/10/13 03:47:29;;;;;;;7.30;5.60;;;14.10;68.70;;;;;;4804934;29;20420;-44
2022/10/13 03:50:00;;;;;;;7.80;5.30;;;14.10;68.80;;;;;;4803832;29;20078;-43
2022/10/13 03:52:28;;;;;;;6.47;5.25;;;14.10;68.80;;;;;;4800085;29;20059;-44
2022/10/13 03:54:55;;;;;;;10.95;6.40;;;14.10;68.90;;;;;;4803001;29;20047;-44
2022/10/13 03:57:21;;;;;;;8.18;6.20;;;14.10;69.10;;;;;;4803523;29;20043;-44
2022/10/13 03:59:50;;;;;;;7.32;6.20;;;14.10;69.20;;;;;;4801382;29;20062;-45
2022/10/13 04:02:28;;;;;;;12.05;6.75;;;14.10;69.30;;;;;;4800514;29;20099;-43
2022/10/13 04:04:56;;;;;;;9.70;6.25;;;14.10;69.30;;;;;;4802632;29;20050;-44
2022/10/13 04:07:23;;;;;;;11.13;6.47;;;14.10;69.30;;;;;;4803192;29;20063;-43
2022/10/13 04:09:50;;;;;;;7.65;5.78;;;14.10;69.30;;;;;;4799783;29;20475;-45
2022/10/13 04:12:16;;;;;;;9.48;6.25;;;14.10;69.30;;;;;;4803134;29;20056;-45
2022/10/13 04:14:47;;;;;;;8.68;5.85;;;14.10;69.30;;;;;;4802627;29;20146;-44
2022/10/13 04:17:16;;;;;;;10.48;5.78;;;14.20;69.20;;;;;;4811756;29;20043;-47
2022/10/13 04:19:50;;;;;;;9.60;5.88;;;14.20;69.20;;;;;;4802320;29;20058;-44
2022/10/13 04:22:21;;;;;;;8.63;6.45;;;14.20;69.40;;;;;;4804220;29;20081;-47
2022/10/13 04:24:48;;;;;;;7.68;6.07;;;14.20;69.10;;;;;;4804198;29;20436;-44
2022/10/13 04:27:17;;;;;;;10.48;6.70;;;14.20;69.10;;;;;;4800852;29;20446;-48
2022/10/13 04:29:46;;;;;;;7.50;5.63;;;14.30;69.20;;;;;;4800533;29;20067;-45
2022/10/13 04:32:13;;;;;;;9.55;6.60;;;14.30;69.10;;;;;;4803907;29;20051;-45
2022/10/13 04:34:39;;;;;;;11.85;6.40;;;14.30;69.10;;;;;;4807620;29;20051;-49
2022/10/13 04:37:08;;;;;;;9.73;5.93;;;14.30;69.00;;;;;;4799851;29;20047;-44
2022/10/13 04:39:35;;;;;;;10.02;5.93;;;14.30;69.00;;;;;;4805458;29;20050;-45
2022/10/13 04:42:05;;;;;;;13.25;6.00;;;14.30;69.00;;;;;;4803130;29;20058;-49
2022/10/13 04:44:36;;;;;;;7.35;5.55;;;14.30;69.00;;;;;;4803569;29;20043;-45
2022/10/13 04:47:07;;;;;;;8.65;5.40;;;14.30;68.90;;;;;;4802075;29;20458;-45
2022/10/13 04:49:34;;;;;;;7.88;5.47;;;14.30;68.90;;;;;;4798437;29;20084;-46
2022/10/13 04:52:00;;;;;;;10.98;6.38;;;14.30;68.80;;;;;;4803140;29;20051;-49
2022/10/13 04:54:27;;;;;;;9.48;5.82;;;14.30;69.50;;;;;;4810006;29;20384;-50
2022/10/13 04:56:54;;;;;;;6.10;4.93;;;14.30;69.00;;;;;;4815773;29;20055;-44
2022/10/13 04:59:20;;;;;;;9.45;6.40;;;14.30;69.00;;;;;;4823260;24;20051;-44
2022/10/13 05:01:47;;;;;;;8.85;5.82;;;14.30;69.00;;;;;;4803322;29;20043;-46
2022/10/13 05:04:14;;;;;;;8.57;5.95;;;14.30;69.00;;;;;;4796805;29;20449;-49
2022/10/13 05:06:42;;;;;;;9.32;6.75;;;14.30;69.10;;;;;;4797508;29;20047;-46
2022/10/13 05:09:28;;;;;;;7.07;5.72;;;14.30;69.00;;;;;;4797619;29;20051;-45
2022/10/13 05:11:56;;;;;;;9.32;5.95;;;14.30;68.90;;;;;;4791879;29;20062;-43
2022/10/13 05:14:23;;;;;;;10.82;5.93;;;14.40;69.00;;;;;;4786973;29;20058;-44
2022/10/13 05:16:49;;;;;;;9.52;6.32;;;14.30;68.90;;;;;;4791192;29;20417;-46
2022/10/13 05:19:16;;;;;;;10.18;6.18;;;14.40;69.00;;;;;;4788290;29;20043;-46
2022/10/13 05:21:42;;;;;;;9.27;6.72;;;14.40;69.10;;;;;;4787804;29;20051;-49
2022/10/13 05:24:12;;;;;;;6.80;5.68;;;14.40;69.00;;;;;;4795278;29;20593;-45
2022/10/13 05:26:39;;;;;;;10.27;6.43;;;14.40;69.00;;;;;;4795109;29;20051;-44
2022/10/13 05:29:06;;;;;;;7.70;6.38;;;14.40;68.90;;;;;;4787678;29;20055;-49
2022/10/13 05:31:34;;;;;;;10.73;6.93;;;14.40;69.00;;;;;;4789406;29;20075;-46
2022/10/13 05:34:01;;;;;;;9.15;6.80;;;14.40;69.10;;;;;;4789426;29;20039;-45
2022/10/13 05:36:31;;;;;;;10.00;6.68;;;14.30;69.00;;;;;;4794555;29;20077;-48
2022/10/13 05:39:03;;;;;;;8.30;6.57;;;14.40;69.10;;;;;;4790284;29;20051;-46
2022/10/13 05:41:30;;;;;;;10.13;7.22;;;14.30;69.10;;;;;;4788683;29;20134;-45
2022/10/13 05:44:00;;;;;;;9.43;6.78;;;14.30;69.10;;;;;;4795620;29;20043;-47
2022/10/13 05:46:26;;;;;;;14.10;8.25;;;14.40;69.20;;;;;;4798600;29;20067;-46
2022/10/13 05:48:53;;;;;;;15.25;7.38;;;14.30;69.10;;;;;;4788237;29;20047;-46
2022/10/13 05:51:26;;;;;;;8.27;6.57;;;14.30;69.20;;;;;;4795715;29;20096;-45
2022/10/13 05:54:23;;;;;;;9.60;7.20;;;14.30;70.00;;;;;;4794093;29;20062;-45
2022/10/13 05:57:13;;;;;;;10.63;7.10;;;14.40;69.80;;;;;;4791395;29;20059;-45
2022/10/13 05:59:48;;;;;;;11.00;7.95;;;14.40;69.80;;;;;;4794938;29;20047;-46
2022/10/13 06:02:16;;;;;;;10.55;6.88;;;14.30;69.30;;;;;;4792860;29;20043;-46
2022/10/13 06:04:47;;;;;;;11.80;7.38;;;14.30;69.20;;;;;;4801016;29;20059;-46
2022/10/13 06:07:14;;;;;;;10.43;7.57;;;14.40;69.40;;;;;;4788793;29;20043;-44
2022/10/13 06:09:42;;;;;;;8.65;6.70;;;14.40;69.50;;;;;;4802147;29;20855;-45
2022/10/13 06:12:09;;;;;;;10.82;7.28;;;14.40;69.40;;;;;;4798763;29;20051;-48
2022/10/13 06:14:36;;;;;;;13.95;7.60;;;14.40;69.50;;;;;;4786202;29;20154;-47
2022/10/13 06:17:08;;;;;;;10.80;6.97;;;14.40;69.50;;;;;;4791337;29;20042;-46
2022/10/13 06:19:36;;;;;;;11.52;7.75;;;14.40;69.40;;;;;;4792547;29;20059;-46
2022/10/13 06:22:06;;;;;;;10.55;7.82;;;14.40;69.50;;;;;;4791162;29;20042;-45
2022/10/13 06:24:33;;;;;;;9.38;7.07;;;14.50;69.50;;;;;;4785610;29;20059;-48
2022/10/13 06:27:02;;;;;;;12.68;8.80;;;14.50;69.50;;;;;;4789416;29;20466;-45
2022/10/13 06:29:29;;;;;;;11.80;9.05;;;14.50;69.70;;;;;;4796790;29;20463;-48
2022/10/13 06:31:55;;;;;;;13.55;8.05;;;14.50;69.50;;;;;;4792590;29;20082;-49
2022/10/13 06:34:22;;;;;;;11.48;8.07;;;14.50;69.50;;;;;;4791697;29;20066;-45
2022/10/13 06:36:49;;;;;;;15.98;8.95;;;14.60;69.50;;;;;;4788507;29;20043;-49
2022/10/13 06:39:15;;;;;;;13.32;8.10;;;14.60;69.40;;;;;;4785562;29;20055;-49
2022/10/13 06:41:43;;;;;;;11.45;8.07;;;14.60;69.30;;;;;;4782862;29;20138;-48
2022/10/13 06:44:10;;;;;;;11.20;8.98;;;14.60;69.20;;;;;;4792924;29;20039;-44
2022/10/13 06:46:36;;;;;;;10.63;8.18;;;14.70;69.20;;;;;;4794255;29;20054;-48
2022/10/13 06:49:04;;;;;;;10.38;7.80;;;14.70;69.10;;;;;;4790180;29;20043;-49
2022/10/13 06:51:31;;;;;;;10.52;7.78;;;14.70;69.10;;;;;;4786471;29;20957;-48
2022/10/13 06:53:58;;;;;;;9.75;8.23;;;14.80;69.10;;;;;;4785986;29;20058;-46
2022/10/13 06:56:24;;;;;;;16.55;8.68;;;14.80;69.00;;;;;;4792491;29;20058;-48
2022/10/13 06:58:51;;;;;;;12.63;8.68;;;14.80;68.90;;;;;;4789855;29;20510;-48
2022/10/13 07:01:18;;;;;;;12.93;7.80;;;14.90;68.90;;;;;;4792970;29;20046;-48
2022/10/13 07:03:50;;;;;;;13.25;8.43;;;14.90;68.90;;;;;;4788239;29;20047;-47
2022/10/13 07:06:19;;;;;;;8.90;7.85;;;14.90;69.00;;;;;;4787049;29;20576;-47
2022/10/13 07:08:47;;;;;;;16.77;8.48;;;15.00;68.90;;;;;;4790319;29;20051;-50
2022/10/13 07:11:17;;;;;;;13.45;8.38;;;15.00;68.90;;;;;;4799642;29;20069;-46
2022/10/13 07:13:47;;;;;;;12.98;8.70;;;15.00;68.80;;;;;;4788659;29;20040;-49
2022/10/13 07:16:16;;;;;;;10.25;7.88;;;15.10;69.00;;;;;;4791838;29;20126;-48
2022/10/13 07:18:43;;;;;;;12.43;7.97;;;15.10;68.90;;;;;;4791674;29;20039;-47
2022/10/13 07:21:09;;;;;;;14.73;8.93;;;15.20;68.90;;;;;;4792979;29;20046;-46
2022/10/13 07:23:36;;;;;;;12.35;7.72;;;15.20;68.90;;;;;;4785798;29;20035;-47
2022/10/13 07:26:08;;;;;;;12.88;8.30;;;15.20;68.90;;;;;;4788245;29;20043;-45
2022/10/13 07:28:35;;;;;;;11.40;8.02;;;15.30;69.10;;;;;;4789685;29;20102;-48
2022/10/13 07:31:14;;;;;;;14.35;8.10;;;15.30;68.80;;;;;;4786106;29;20138;-47
2022/10/13 07:33:43;;;;;;;9.85;7.40;;;15.40;69.00;;;;;;4785326;29;20058;-48
2022/10/13 07:36:11;;;;;;;9.98;6.95;;;15.40;68.60;;;;;;4789227;29;20073;-46
2022/10/13 07:38:38;;;;;;;12.85;8.50;;;15.50;68.60;;;;;;4787209;29;20043;-45
2022/10/13 07:41:07;;;;;;;12.32;8.60;;;15.50;68.60;;;;;;4786148;29;20487;-49
2022/10/13 07:43:34;;;;;;;11.45;7.47;;;15.60;68.60;;;;;;4789230;29;20549;-48
2022/10/13 07:46:04;;;;;;;11.05;7.97;;;15.60;68.50;;;;;;4792177;29;20047;-45
2022/10/13 07:48:32;;;;;;;12.95;7.72;;;15.60;68.40;;;;;;4784703;29;20062;-46
2022/10/13 07:51:09;;;;;;;10.43;7.22;;;15.70;68.30;;;;;;4786063;29;20413;-45
2022/10/13 07:53:36;;;;;;;13.98;8.43;;;15.80;68.40;;;;;;4789835;29;20055;-46
2022/10/13 07:56:05;;;;;;;11.32;7.47;;;15.80;68.30;;;;;;4790466;29;20688;-49
2022/10/13 07:58:35;;;;;;;13.48;7.20;;;15.80;68.20;;;;;;4787229;29;20708;-45
2022/10/13 08:01:02;;;;;;;12.68;7.47;;;15.80;68.00;;;;;;4785575;29;20090;-50
2022/10/13 08:03:31;;;;;;;11.35;7.60;;;15.90;68.00;;;;;;4785527;29;20035;-45
2022/10/13 08:05:59;;;;;;;11.57;8.23;;;15.90;67.90;;;;;;4798294;29;20100;-46
2022/10/13 08:08:26;;;;;;;13.85;8.57;;;16.00;67.80;;;;;;4789796;29;20048;-45
2022/10/13 08:10:54;;;;;;;13.30;7.95;;;16.00;67.70;;;;;;4785722;29;20043;-45
2022/10/13 08:13:22;;;;;;;14.25;8.00;;;16.10;67.70;;;;;;4799030;29;20162;-49
2022/10/13 08:15:49;;;;;;;10.98;7.65;;;16.10;67.70;;;;;;4794183;29;20125;-48
2022/10/13 08:18:15;;;;;;;11.23;7.55;;;16.20;67.60;;;;;;4786216;29;20042;-46
2022/10/13 08:20:44;;;;;;;10.88;7.28;;;16.20;67.50;;;;;;4783760;29;20057;-49
2022/10/13 08:23:12;;;;;;;10.82;7.80;;;16.30;67.50;;;;;;4786605;29;20044;-46
2022/10/13 08:25:47;;;;;;;11.32;7.65;;;16.40;67.30;;;;;;4787401;29;20557;-46
2022/10/13 08:28:19;;;;;;;11.85;8.50;;;16.50;67.10;;;;;;4784666;29;20417;-46
2022/10/13 08:30:46;;;;;;;15.45;8.60;;;16.60;67.00;;;;;;4785347;29;20055;-48
2022/10/13 08:33:13;;;;;;;13.88;8.30;;;16.60;66.80;;;;;;4791338;29;20074;-47
2022/10/13 08:35:41;;;;;;;13.45;7.78;;;16.70;66.60;;;;;;4791493;29;20049;-49
2022/10/13 08:38:11;;;;;;;10.25;7.15;;;16.80;66.60;;;;;;4784124;29;20118;-46
2022/10/13 08:40:46;;;;;;;14.48;8.77;;;16.80;66.40;;;;;;4795465;29;20417;-46
2022/10/13 08:43:17;;;;;;;11.85;7.80;;;16.90;66.10;;;;;;4785639;29;20051;-48
2022/10/13 08:45:44;;;;;;;11.63;6.75;;;17.00;66.00;;;;;;4791933;29;20710;-48
2022/10/13 08:48:17;;;;;;;10.18;6.93;;;17.00;66.00;;;;;;4796487;29;20131;-45
2022/10/13 08:50:48;;;;;;;9.32;6.60;;;17.10;65.80;;;;;;4792443;29;20061;-45
2022/10/13 08:53:39;;;;;;;8.80;6.05;;;17.20;65.50;;;;;;4786985;29;20053;-49
2022/10/13 08:56:09;;;;;;;13.07;6.43;;;17.30;65.20;;;;;;4784220;29;20039;-45
2022/10/13 08:58:41;;;;;;;9.68;6.50;;;17.40;65.30;;;;;;4785622;29;20069;-49
2022/10/13 09:01:26;;;;;;;8.38;6.63;;;17.40;65.10;;;;;;4785655;29;20039;-47
2022/10/13 09:03:53;;;;;;;10.65;7.38;;;17.50;64.80;;;;;;4783418;29;20051;-48
2022/10/13 09:06:28;;;;;;;13.07;7.45;;;17.50;64.80;;;;;;4784840;29;20047;-46
2022/10/13 09:09:04;;;;;;;11.02;6.30;;;17.50;64.50;;;;;;4791922;29;20047;-48
2022/10/13 09:11:35;;;;;;;9.93;6.63;;;17.60;64.30;;;;;;4795488;29;20043;-46
2022/10/13 09:14:05;;;;;;;11.88;6.30;;;17.60;64.30;;;;;;4785010;29;20116;-49
2022/10/13 09:16:37;;;;;;;11.13;5.85;;;17.60;64.30;;;;;;4791102;29;20058;-50
2022/10/13 09:19:18;;;;;;;8.93;6.32;;;17.60;64.10;;;;;;4793482;29;20053;-46
2022/10/13 09:21:45;;;;;;;8.20;6.15;;;17.60;64.00;;;;;;4792836;29;20079;-50
2022/10/13 09:24:17;;;;;;;8.20;6.07;;;17.60;64.10;;;;;;4783887;30;20051;-49
2022/10/13 09:26:48;;;;;;;7.28;5.55;;;17.70;64.00;;;;;;4784197;29;20047;-46
2022/10/13 09:29:24;;;;;;;9.35;5.68;;;17.60;64.10;;;;;;4792990;29;20047;-46
2022/10/13 09:32:11;;;;;;;11.85;5.85;;;17.70;64.00;;;;;;4789961;29;20391;-48
2022/10/13 09:34:38;;;;;;;11.77;6.78;;;17.70;63.90;;;;;;4782972;29;20074;-46
2022/10/13 09:37:15;;;;;;;8.57;5.47;;;17.70;64.00;;;;;;4784894;29;20472;-46
2022/10/13 09:39:42;;;;;;;8.70;6.22;;;17.70;64.20;;;;;;4793762;29;20054;-50
2022/10/13 09:42:27;;;;;;;6.88;6.15;;;17.70;64.10;;;;;;4781959;29;20043;-50
2022/10/13 09:45:15;;;;;;;8.32;5.55;;;17.80;64.10;;;;;;4785149;29;20092;-46
2022/10/13 09:47:53;;;;;;;9.45;6.68;;;17.80;64.30;;;;;;4784705;29;20051;-49
2022/10/13 09:50:32;;;;;;;9.38;5.82;;;17.90;64.60;;;;;;4782584;29;20615;-48
2022/10/13 09:53:27;;;;;;;8.73;5.70;;;17.90;64.70;;;;;;4783177;29;20050;-48
2022/10/13 09:56:24;;;;;;;7.18;5.30;;;18.00;65.20;;;;;;4783121;29;20047;-46
2022/10/13 09:59:01;;;;;;;12.82;5.55;;;18.10;65.10;;;;;;4793756;29;20047;-47
2022/10/13 10:01:33;;;;;;;10.52;5.72;;;18.20;64.90;;;;;;4785532;29;20662;-53
2022/10/13 10:04:11;;;;;;;7.63;5.75;;;18.30;65.10;;;;;;4786917;29;20066;-54
2022/10/13 10:06:39;;;;;;;10.23;6.20;;;18.30;64.90;;;;;;4788688;29;20083;-54
2022/10/13 10:09:44;;;;;;;10.02;6.80;;;18.40;64.60;;;;;;4786678;29;20063;-52
2022/10/13 10:12:17;;;;;;;9.00;5.82;;;18.50;64.90;;;;;;4796632;29;20490;-53
2022/10/13 10:14:49;;;;;;;8.68;5.35;;;18.40;64.80;;;;;;4797701;29;20798;-52
2022/10/13 10:17:24;;;;;;;8.85;5.88;;;18.40;64.50;;;;;;4788700;29;20107;-53
2022/10/13 10:20:10;;;;;;;7.82;6.25;;;18.50;64.50;;;;;;4786369;29;20051;-55
2022/10/13 10:22:55;;;;;;;7.72;6.32;;;18.50;64.30;;;;;;4786389;29;20055;-54
2022/10/13 10:25:43;;;;;;;8.57;5.97;;;18.50;64.10;;;;;;4807515;29;20137;-51
2022/10/13 10:28:27;;;;;;;8.32;6.15;;;18.50;64.10;;;;;;4788160;29;20054;-54
2022/10/13 10:31:23;;;;;;;8.32;5.82;;;18.50;64.00;;;;;;4800730;29;20054;-54
2022/10/13 10:34:09;;;;;;;6.72;5.35;;;18.40;64.10;;;;;;4803538;29;20772;-51
2022/10/13 10:36:58;;;;;;;8.07;5.10;;;18.40;64.10;;;;;;4798395;29;20514;-55
2022/10/13 10:40:22;;;;;;;9.93;5.88;;;18.40;64.40;;;;;;4786038;29;20143;-52
2022/10/13 10:43:00;;;;;;;9.38;4.88;;;18.40;64.60;;;;;;4771091;29;20047;-51
2022/10/13 10:45:34;;;;;;;6.68;4.93;;;18.30;64.40;;;;;;4787230;29;20063;-51
2022/10/13 10:48:19;;;;;;;7.65;5.47;;;18.30;64.50;;;;;;4786432;29;20055;-53
2022/10/13 10:50:47;;;;;;;7.22;5.28;;;18.30;64.70;;;;;;4785392;29;20047;-55
2022/10/13 10:53:43;;;;;;;9.75;5.28;;;18.20;64.60;;;;;;4789945;29;20483;-55
2022/10/13 10:56:32;;;;;;;6.82;5.18;;;18.20;64.90;;;;;;4785350;29;20141;-54
2022/10/13 10:59:23;;;;;;;7.60;5.72;;;18.20;65.20;;;;;;4785891;29;20039;-53
2022/10/13 11:02:07;;;;;;;8.32;5.40;;;18.10;65.30;;;;;;4784920;29;20505;-54
2022/10/13 11:04:46;;;;;;;6.32;4.85;;;18.10;65.20;;;;;;4798090;29;20070;-54
2022/10/13 11:07:32;;;;;;;6.85;4.57;;;18.10;65.50;;;;;;4779118;30;20051;-49
2022/10/13 11:10:00;;;;;;;8.30;5.43;;;18.10;65.60;;;;;;4785962;29;20082;-55
2022/10/13 11:12:52;;;;;;;11.75;5.95;;;18.10;66.00;;;;;;4783329;29;20059;-50
2022/10/13 11:15:40;;;;;;;6.20;4.87;;;18.10;66.30;;;;;;4779339;29;20039;-50
2022/10/13 11:18:57;;;;;;;11.15;5.90;;;18.10;66.60;;;;;;4820305;24;20049;-52
2022/10/13 11:21:52;;;;;;;9.90;5.00;;;18.10;66.50;;;;;;4788123;29;20562;-50
2022/10/13 11:24:40;;;;;;;8.05;5.35;;;18.10;67.00;;;;;;4803155;29;20039;-54
2022/10/13 11:27:36;;;;;;;7.85;5.78;;;18.10;66.90;;;;;;4804536;29;20415;-51
2022/10/13 11:30:39;;;;;;;10.57;5.57;;;18.10;66.70;;;;;;4801570;29;20053;-52
2022/10/13 11:33:31;;;;;;;7.53;4.60;;;18.10;66.80;;;;;;4802564;29;20059;-52
2022/10/13 11:36:31;;;;;;;7.00;4.63;;;18.20;66.80;;;;;;4802957;29;20042;-52
2022/10/13 11:39:26;;;;;;;6.95;4.50;;;18.20;67.00;;;;;;4799120;29;20058;-49
2022/10/13 11:42:02;;;;;;;7.03;4.95;;;18.20;66.90;;;;;;4804771;29;20066;-53
2022/10/13 11:44:38;;;;;;;6.38;4.72;;;18.20;67.00;;;;;;4800535;29;20123;-51
2022/10/13 11:47:44;;;;;;;6.30;4.88;;;18.30;66.70;;;;;;4802188;29;20074;-49
2022/10/13 11:50:43;;;;;;;7.05;4.57;;;18.30;67.00;;;;;;4802981;29;20050;-50
2022/10/13 11:53:17;;;;;;;7.32;5.05;;;18.40;66.80;;;;;;4799998;29;20058;-51
2022/10/13 11:55:58;;;;;;;7.10;4.53;;;18.40;66.60;;;;;;4802842;29;20061;-52
2022/10/13 11:58:30;;;;;;;7.45;5.18;;;18.40;66.50;;;;;;4795251;29;20043;-54
2022/10/13 12:01:05;;;;;;;5.13;4.32;;;18.50;66.90;;;;;;4801261;29;20096;-50
2022/10/13 12:03:34;;;;;;;5.50;4.68;;;18.60;66.60;;;;;;4802630;29;20082;-50
2022/10/13 12:06:03;;;;;;;8.52;4.95;;;18.60;66.40;;;;;;4802578;29;20098;-51
2022/10/13 12:08:35;;;;;;;6.03;4.65;;;18.70;66.70;;;;;;4801050;29;20420;-49
2022/10/13 12:11:06;;;;;;;5.95;4.60;;;18.80;66.10;;;;;;4801267;29;20575;-49
2022/10/13 12:13:35;;;;;;;5.38;4.10;;;18.80;65.80;;;;;;4803937;29;20108;-54
2022/10/13 12:16:05;;;;;;;4.95;4.38;;;18.80;65.70;;;;;;4800175;29;20043;-51
2022/10/13 12:18:36;;;;;;;6.57;5.00;;;18.80;65.50;;;;;;4796054;29;20074;-53
2022/10/13 12:21:19;;;;;;;5.90;4.77;;;18.90;65.30;;;;;;4803066;29;20544;-54
2022/10/13 12:23:48;;;;;;;6.30;4.28;;;18.90;65.40;;;;;;4801657;29;20074;-51
2022/10/13 12:26:24;;;;;;;9.05;4.78;;;18.90;65.60;;;;;;4800867;29;20047;-53
2022/10/13 12:28:53;;;;;;;6.95;5.13;;;19.10;65.90;;;;;;4801381;29;20126;-53
2022/10/13 12:31:23;;;;;;;5.53;4.88;;;19.10;65.90;;;;;;4803308;29;20051;-54
2022/10/13 12:33:53;;;;;;;6.38;4.63;;;19.20;65.80;;;;;;4801141;29;20491;-52
2022/10/13 12:36:32;;;;;;;7.38;4.75;;;19.30;65.30;;;;;;4795415;29;20049;-55
2022/10/13 12:39:05;;;;;;;6.55;4.50;;;19.40;65.10;;;;;;4803268;29;20043;-52
2022/10/13 12:41:35;;;;;;;6.00;4.15;;;19.40;64.40;;;;;;4802811;29;20130;-54
2022/10/13 12:44:04;;;;;;;8.15;4.40;;;19.60;64.40;;;;;;4807227;29;20095;-53
2022/10/13 12:46:44;;;;;;;5.45;4.72;;;19.50;64.10;;;;;;4797136;29;20126;-54
2022/10/13 12:49:18;;;;;;;5.90;4.22;;;19.50;63.70;;;;;;4800925;29;20043;-53
2022/10/13 12:52:17;;;;;;;7.47;4.57;;;19.50;63.50;;;;;;4803186;29;20108;-52
2022/10/13 12:54:52;;;;;;;5.45;4.90;;;19.50;63.50;;;;;;4795185;29;20062;-53
2022/10/13 12:57:25;;;;;;;6.25;4.25;;;19.40;63.20;;;;;;4802568;29;20675;-54
2022/10/13 12:59:52;;;;;;;9.30;5.57;;;19.40;63.40;;;;;;4802038;29;20107;-54
2022/10/13 13:02:31;;;;;;;7.43;4.78;;;19.30;63.50;;;;;;4803085;29;20051;-53
2022/10/13 13:05:00;;;;;;;6.72;5.03;;;19.30;64.00;;;;;;4797385;29;20053;-54
2022/10/13 13:07:38;;;;;;;9.70;5.15;;;19.20;64.10;;;;;;4797690;29;20057;-54
2022/10/13 13:10:08;;;;;;;6.25;4.55;;;19.20;64.30;;;;;;4801917;29;20082;-54
2022/10/13 13:12:36;;;;;;;6.88;4.63;;;19.20;64.50;;;;;;4801070;29;20402;-50
2022/10/13 13:15:24;;;;;;;6.50;5.15;;;19.20;64.60;;;;;;4798552;29;20046;-54
2022/10/13 13:17:52;;;;;;;5.35;4.65;;;19.30;64.80;;;;;;4802267;29;20134;-54